sensor_id;sensor_type;location;lat;lon;timestamp;P1;P2;P0
12542;PMS3003;6337;49.556;25.594;2023-10-13T00:02:01;7.37;5.70;
12542;PMS3003;6337;49.556;25.594;2023-10-13T00:04:32;8.80;5.00;
12542;PMS3003;6337;49.556;25.594;2023-10-13T00:07:10;11.63;6.03;
12542;PMS3003;6337;49.556;25.594;2023-10-13T00:09:37;7.03;4.33;
12542;PMS3003;6337;49.556;25.594;2023-10-13T00:12:07;9.03;4.67;
12542;PMS3003;6337;49.556;25.594;2023-10-13T00:14:39;8.57;4.43;
12542;PMS3003;6337;49.556;25.594;2023-10-13T00:17:10;7.67;5.70;
12542;PMS3003;6337;49.556;25.594;2023-10-13T00:19:46;12.67;7.10;
12542;PMS3003;6337;49.556;25.594;2023-10-13T00:25:13;7.57;4.97;
12542;PMS3003;6337;49.556;25.594;2023-10-13T00:27:51;8.10;4.80;
12542;PMS3003;6337;49.556;25.594;2023-10-13T00:30:19;12.57;6.27;
12542;PMS3003;6337;49.556;25.594;2023-10-13T00:39:31;8.30;5.50;
12542;PMS3003;6337;49.556;25.594;2023-10-13T00:42:01;11.77;5.83;
12542;PMS3003;6337;49.556;25.594;2023-10-13T00:44:33;8.60;6.20;
12542;PMS3003;6337;49.556;25.594;2023-10-13T00:47:04;19.43;6.20;
12542;PMS3003;6337;49.556;25.594;2023-10-13T00:49:33;7.90;6.07;
12542;PMS3003;6337;49.556;25.594;2023-10-13T00:52:05;8.43;7.13;
12542;PMS3003;6337;49.556;25.594;2023-10-13T00:54:35;15.80;7.80;
12542;PMS3003;6337;49.556;25.594;2023-10-13T00:57:05;7.67;6.63;
12542;PMS3003;6337;49.556;25.594;2023-10-13T00:59:37;12.63;6.50;
12542;PMS3003;6337;49.556;25.594;2023-10-13T01:02:03;13.30;6.33;
12542;PMS3003;6337;49.556;25.594;2023-10-13T01:04:55;13.60;6.20;
12542;PMS3003;6337;49.556;25.594;2023-10-13T01:07:24;14.03;6.57;
12542;PMS3003;6337;49.556;25.594;2023-10-13T01:09:51;7.40;6.43;
12542;PMS3003;6337;49.556;25.594;2023-10-13T01:12:17;7.77;5.17;
12542;PMS3003;6337;49.556;25.594;2023-10-13T01:14:45;12.13;5.30;
12542;PMS3003;6337;49.556;25.594;2023-10-13T01:17:14;12.50;5.90;
12542;PMS3003;6337;49.556;25.594;2023-10-13T01:19:43;10.07;5.70;
12542;PMS3003;6337;49.556;25.594;2023-10-13T01:22:10;11.40;7.47;
12542;PMS3003;6337;49.556;25.594;2023-10-13T01:24:39;8.20;6.00;
12542;PMS3003;6337;49.556;25.594;2023-10-13T01:27:07;8.70;5.30;
12542;PMS3003;6337;49.556;25.594;2023-10-13T01:29:42;9.33;6.33;
12542;PMS3003;6337;49.556;25.594;2023-10-13T01:32:16;7.67;5.47;
12542;PMS3003;6337;49.556;25.594;2023-10-13T01:34:45;9.63;5.47;
12542;PMS3003;6337;49.556;25.594;2023-10-13T01:37:13;12.00;5.53;
12542;PMS3003;6337;49.556;25.594;2023-10-13T01:39:43;10.87;6.50;
12542;PMS3003;6337;49.556;25.594;2023-10-13T01:42:12;22.30;5.87;
12542;PMS3003;6337;49.556;25.594;2023-10-13T01:44:44;10.47;7.60;
12542;PMS3003;6337;49.556;25.594;2023-10-13T01:47:17;14.23;7.17;
12542;PMS3003;6337;49.556;25.594;2023-10-13T01:49:43;8.77;6.57;
12542;PMS3003;6337;49.556;25.594;2023-10-13T01:52:15;6.03;5.50;
12542;PMS3003;6337;49.556;25.594;2023-10-13T01:54:43;14.43;5.80;
12542;PMS3003;6337;49.556;25.594;2023-10-13T01:57:11;17.10;6.53;
12542;PMS3003;6337;49.556;25.594;2023-10-13T01:59:39;9.00;5.70;
12542;PMS3003;6337;49.556;25.594;2023-10-13T02:02:09;13.30;6.37;
12542;PMS3003;6337;49.556;25.594;2023-10-13T02:04:37;8.00;6.13;
12542;PMS3003;6337;49.556;25.594;2023-10-13T02:07:07;20.73;7.60;
12542;PMS3003;6337;49.556;25.594;2023-10-13T02:09:33;8.20;6.67;
12542;PMS3003;6337;49.556;25.594;2023-10-13T02:12:04;22.43;7.10;
12542;PMS3003;6337;49.556;25.594;2023-10-13T02:14:30;12.40;6.30;
12542;PMS3003;6337;49.556;25.594;2023-10-13T02:16:58;8.50;5.87;
12542;PMS3003;6337;49.556;25.594;2023-10-13T02:19:40;7.20;5.83;
12542;PMS3003;6337;49.556;25.594;2023-10-13T02:22:10;17.43;6.73;
12542;PMS3003;6337;49.556;25.594;2023-10-13T02:27:45;9.07;6.03;
12542;PMS3003;6337;49.556;25.594;2023-10-13T02:30:31;10.53;7.07;
12542;PMS3003;6337;49.556;25.594;2023-10-13T02:32:59;9.93;6.67;
12542;PMS3003;6337;49.556;25.594;2023-10-13T02:35:46;10.20;7.10;
12542;PMS3003;6337;49.556;25.594;2023-10-13T02:38:21;9.73;6.17;
12542;PMS3003;6337;49.556;25.594;2023-10-13T02:40:59;12.83;5.93;
12542;PMS3003;6337;49.556;25.594;2023-10-13T02:43:36;10.50;6.73;
12542;PMS3003;6337;49.556;25.594;2023-10-13T02:46:02;11.20;7.37;
12542;PMS3003;6337;49.556;25.594;2023-10-13T02:48:30;7.90;5.80;
12542;PMS3003;6337;49.556;25.594;2023-10-13T02:54:24;14.70;6.37;
12542;PMS3003;6337;49.556;25.594;2023-10-13T02:56:59;15.93;6.80;
12542;PMS3003;6337;49.556;25.594;2023-10-13T03:02:53;17.23;7.40;
12542;PMS3003;6337;49.556;25.594;2023-10-13T03:15:17;15.80;7.80;
12542;PMS3003;6337;49.556;25.594;2023-10-13T03:17:46;19.80;8.10;
12542;PMS3003;6337;49.556;25.594;2023-10-13T03:20:19;13.27;6.87;
12542;PMS3003;6337;49.556;25.594;2023-10-13T03:26:20;19.53;7.60;
12542;PMS3003;6337;49.556;25.594;2023-10-13T03:28:48;16.27;8.10;
12542;PMS3003;6337;49.556;25.594;2023-10-13T03:31:17;19.03;7.30;
12542;PMS3003;6337;49.556;25.594;2023-10-13T03:33:51;18.60;9.10;
12542;PMS3003;6337;49.556;25.594;2023-10-13T03:36:31;17.70;10.40;
12542;PMS3003;6337;49.556;25.594;2023-10-13T03:42:33;12.50;7.30;
12542;PMS3003;6337;49.556;25.594;2023-10-13T03:45:06;12.43;8.70;
12542;PMS3003;6337;49.556;25.594;2023-10-13T03:47:36;10.33;7.37;
12542;PMS3003;6337;49.556;25.594;2023-10-13T03:50:04;12.30;8.00;
12542;PMS3003;6337;49.556;25.594;2023-10-13T03:52:47;10.10;5.80;
12542;PMS3003;6337;49.556;25.594;2023-10-13T03:55:20;14.73;8.13;
12542;PMS3003;6337;49.556;25.594;2023-10-13T03:57:52;9.17;6.83;
12542;PMS3003;6337;49.556;25.594;2023-10-13T04:00:20;10.53;8.00;
12542;PMS3003;6337;49.556;25.594;2023-10-13T04:02:51;11.17;7.23;
12542;PMS3003;6337;49.556;25.594;2023-10-13T04:05:36;11.37;6.80;
12542;PMS3003;6337;49.556;25.594;2023-10-13T04:11:56;10.47;6.50;
12542;PMS3003;6337;49.556;25.594;2023-10-13T04:14:40;11.97;7.83;
12542;PMS3003;6337;49.556;25.594;2023-10-13T04:17:26;9.00;7.07;
12542;PMS3003;6337;49.556;25.594;2023-10-13T04:19:55;20.50;7.60;
12542;PMS3003;6337;49.556;25.594;2023-10-13T04:47:19;11.77;7.97;
12542;PMS3003;6337;49.556;25.594;2023-10-13T04:49:48;10.73;7.87;
12542;PMS3003;6337;49.556;25.594;2023-10-13T04:52:25;16.20;9.00;
12542;PMS3003;6337;49.556;25.594;2023-10-13T04:55:19;18.67;9.40;
12542;PMS3003;6337;49.556;25.594;2023-10-13T04:58:09;15.00;8.10;
12542;PMS3003;6337;49.556;25.594;2023-10-13T05:00:54;21.13;9.60;
12542;PMS3003;6337;49.556;25.594;2023-10-13T05:10:20;18.10;9.63;
12542;PMS3003;6337;49.556;25.594;2023-10-13T05:13:06;15.93;10.20;
12542;PMS3003;6337;49.556;25.594;2023-10-13T05:16:00;21.90;10.63;
12542;PMS3003;6337;49.556;25.594;2023-10-13T05:18:47;15.40;10.73;
12542;PMS3003;6337;49.556;25.594;2023-10-13T05:21:36;22.37;11.03;
12542;PMS3003;6337;49.556;25.594;2023-10-13T05:24:22;18.00;8.83;
12542;PMS3003;6337;49.556;25.594;2023-10-13T05:27:06;27.60;10.97;
12542;PMS3003;6337;49.556;25.594;2023-10-13T05:29:51;15.10;11.20;
12542;PMS3003;6337;49.556;25.594;2023-10-13T05:32:38;11.90;9.70;
12542;PMS3003;6337;49.556;25.594;2023-10-13T05:35:27;17.77;11.87;
12542;PMS3003;6337;49.556;25.594;2023-10-13T05:38:14;14.27;10.97;
12542;PMS3003;6337;49.556;25.594;2023-10-13T05:40:59;12.93;9.50;
12542;PMS3003;6337;49.556;25.594;2023-10-13T05:43:48;13.83;9.50;
12542;PMS3003;6337;49.556;25.594;2023-10-13T05:52:18;21.73;9.70;
12542;PMS3003;6337;49.556;25.594;2023-10-13T05:55:06;19.40;11.03;
12542;PMS3003;6337;49.556;25.594;2023-10-13T05:57:51;23.40;11.90;
12542;PMS3003;6337;49.556;25.594;2023-10-13T06:53:07;19.73;12.20;
12542;PMS3003;6337;49.556;25.594;2023-10-13T09:20:04;11.30;9.83;
12542;PMS3003;6337;49.556;25.594;2023-10-13T09:23:07;12.33;9.10;
12542;PMS3003;6337;49.556;25.594;2023-10-13T09:25:50;13.00;10.90;
12542;PMS3003;6337;49.556;25.594;2023-10-13T09:28:24;18.97;11.10;
12542;PMS3003;6337;49.556;25.594;2023-10-13T09:30:54;12.53;10.20;
12542;PMS3003;6337;49.556;25.594;2023-10-13T09:33:25;15.50;10.57;
12542;PMS3003;6337;49.556;25.594;2023-10-13T09:36:17;10.33;8.80;
12542;PMS3003;6337;49.556;25.594;2023-10-13T09:38:45;19.60;11.00;
12542;PMS3003;6337;49.556;25.594;2023-10-13T09:41:36;28.40;14.57;
12542;PMS3003;6337;49.556;25.594;2023-10-13T09:44:05;12.43;10.10;
12542;PMS3003;6337;49.556;25.594;2023-10-13T09:46:33;18.27;11.63;
12542;PMS3003;6337;49.556;25.594;2023-10-13T09:49:11;18.03;9.77;
12542;PMS3003;6337;49.556;25.594;2023-10-13T09:51:43;15.30;8.50;
12542;PMS3003;6337;49.556;25.594;2023-10-13T09:54:13;17.20;8.80;
12542;PMS3003;6337;49.556;25.594;2023-10-13T09:57:27;16.13;10.77;
12542;PMS3003;6337;49.556;25.594;2023-10-13T10:00:06;9.23;7.70;
12542;PMS3003;6337;49.556;25.594;2023-10-13T10:02:58;12.00;10.57;
12542;PMS3003;6337;49.556;25.594;2023-10-13T10:05:41;16.30;9.13;
12542;PMS3003;6337;49.556;25.594;2023-10-13T10:08:24;13.50;8.90;
12542;PMS3003;6337;49.556;25.594;2023-10-13T10:11:00;12.53;9.13;
12542;PMS3003;6337;49.556;25.594;2023-10-13T10:13:34;12.10;8.47;
12542;PMS3003;6337;49.556;25.594;2023-10-13T10:16:43;12.23;9.10;
12542;PMS3003;6337;49.556;25.594;2023-10-13T10:19:18;9.20;7.57;
12542;PMS3003;6337;49.556;25.594;2023-10-13T11:07:48;7.07;4.73;
12542;PMS3003;6337;49.556;25.594;2023-10-13T11:10:16;7.97;3.97;
12542;PMS3003;6337;49.556;25.594;2023-10-13T11:12:55;7.13;5.10;
12542;PMS3003;6337;49.556;25.594;2023-10-13T11:32:07;13.23;6.00;
12542;PMS3003;6337;49.556;25.594;2023-10-13T11:34:46;14.33;4.73;
12542;PMS3003;6337;49.556;25.594;2023-10-13T11:40:32;8.40;4.77;
12542;PMS3003;6337;49.556;25.594;2023-10-13T11:47:19;7.40;6.60;
12542;PMS3003;6337;49.556;25.594;2023-10-13T12:03:33;5.60;5.10;
12542;PMS3003;6337;49.556;25.594;2023-10-13T12:09:53;9.03;5.60;
12542;PMS3003;6337;49.556;25.594;2023-10-13T12:16:01;13.37;4.47;
12542;PMS3003;6337;49.556;25.594;2023-10-13T12:22:12;5.50;4.00;
12542;PMS3003;6337;49.556;25.594;2023-10-13T12:24:50;17.60;4.50;
12542;PMS3003;6337;49.556;25.594;2023-10-13T12:27:21;8.80;7.87;
12542;PMS3003;6337;49.556;25.594;2023-10-13T12:29:52;9.63;5.90;
12542;PMS3003;6337;49.556;25.594;2023-10-13T12:32:22;35.13;6.70;
12542;PMS3003;6337;49.556;25.594;2023-10-13T12:34:50;5.83;3.67;
12542;PMS3003;6337;49.556;25.594;2023-10-13T12:37:49;4.03;3.70;
12542;PMS3003;6337;49.556;25.594;2023-10-13T12:40:18;10.43;5.40;
12542;PMS3003;6337;49.556;25.594;2023-10-13T12:43:04;8.00;4.30;
12542;PMS3003;6337;49.556;25.594;2023-10-13T12:45:54;8.57;4.23;
12542;PMS3003;6337;49.556;25.594;2023-10-13T12:48:38;11.90;4.90;
12542;PMS3003;6337;49.556;25.594;2023-10-13T12:51:23;4.17;3.77;
12542;PMS3003;6337;49.556;25.594;2023-10-13T12:54:10;8.63;4.63;
12542;PMS3003;6337;49.556;25.594;2023-10-13T13:00:23;4.50;3.43;
12542;PMS3003;6337;49.556;25.594;2023-10-13T13:06:36;6.10;4.43;
12542;PMS3003;6337;49.556;25.594;2023-10-13T13:16:38;8.70;4.13;
12542;PMS3003;6337;49.556;25.594;2023-10-13T13:19:09;4.37;4.03;
12542;PMS3003;6337;49.556;25.594;2023-10-13T13:21:39;13.40;4.83;
12542;PMS3003;6337;49.556;25.594;2023-10-13T13:24:07;13.27;5.20;
12542;PMS3003;6337;49.556;25.594;2023-10-13T13:26:43;13.60;4.93;
12542;PMS3003;6337;49.556;25.594;2023-10-13T13:42:16;12.90;5.37;
12542;PMS3003;6337;49.556;25.594;2023-10-13T13:44:44;15.93;5.77;
12542;PMS3003;6337;49.556;25.594;2023-10-13T13:47:15;20.43;8.63;
12542;PMS3003;6337;49.556;25.594;2023-10-13T13:49:46;13.53;7.77;
12542;PMS3003;6337;49.556;25.594;2023-10-13T13:52:34;11.83;7.40;
12542;PMS3003;6337;49.556;25.594;2023-10-13T13:55:11;12.27;6.80;
12542;PMS3003;6337;49.556;25.594;2023-10-13T13:57:46;13.90;6.33;
12542;PMS3003;6337;49.556;25.594;2023-10-13T14:00:16;8.90;6.20;
12542;PMS3003;6337;49.556;25.594;2023-10-13T14:02:48;14.60;7.00;
12542;PMS3003;6337;49.556;25.594;2023-10-13T14:05:19;24.10;7.40;
12542;PMS3003;6337;49.556;25.594;2023-10-13T14:07:48;32.50;7.47;
12542;PMS3003;6337;49.556;25.594;2023-10-13T14:10:16;16.10;7.33;
12542;PMS3003;6337;49.556;25.594;2023-10-13T14:13:02;8.80;7.20;
12542;PMS3003;6337;49.556;25.594;2023-10-13T14:15:37;22.77;7.23;
12542;PMS3003;6337;49.556;25.594;2023-10-13T14:18:09;15.10;8.23;
12542;PMS3003;6337;49.556;25.594;2023-10-13T14:20:41;11.00;7.30;
12542;PMS3003;6337;49.556;25.594;2023-10-13T14:23:11;13.17;6.27;
12542;PMS3003;6337;49.556;25.594;2023-10-13T14:25:39;14.37;7.40;
12542;PMS3003;6337;49.556;25.594;2023-10-13T14:28:09;14.77;7.40;
12542;PMS3003;6337;49.556;25.594;2023-10-13T14:30:44;16.80;6.07;
12542;PMS3003;6337;49.556;25.594;2023-10-13T14:33:11;11.07;7.50;
12542;PMS3003;6337;49.556;25.594;2023-10-13T14:35:41;16.13;6.40;
12542;PMS3003;6337;49.556;25.594;2023-10-13T14:38:12;14.83;6.47;
12542;PMS3003;6337;49.556;25.594;2023-10-13T14:40:39;13.67;6.60;
12542;PMS3003;6337;49.556;25.594;2023-10-13T14:43:08;10.57;6.60;
12542;PMS3003;6337;49.556;25.594;2023-10-13T14:45:43;18.17;6.57;
12542;PMS3003;6337;49.556;25.594;2023-10-13T14:48:12;10.23;6.00;
12542;PMS3003;6337;49.556;25.594;2023-10-13T14:50:42;11.30;7.63;
12542;PMS3003;6337;49.556;25.594;2023-10-13T14:53:10;17.73;8.50;
12542;PMS3003;6337;49.556;25.594;2023-10-13T14:55:43;22.70;9.97;
12542;PMS3003;6337;49.556;25.594;2023-10-13T14:58:11;27.80;9.80;
12542;PMS3003;6337;49.556;25.594;2023-10-13T15:00:41;18.33;11.30;
12542;PMS3003;6337;49.556;25.594;2023-10-13T15:03:10;16.30;9.60;
12542;PMS3003;6337;49.556;25.594;2023-10-13T15:05:38;21.47;11.77;
12542;PMS3003;6337;49.556;25.594;2023-10-13T15:08:10;20.07;11.67;
12542;PMS3003;6337;49.556;25.594;2023-10-13T15:10:37;25.03;10.20;
12542;PMS3003;6337;49.556;25.594;2023-10-13T15:13:05;30.57;11.40;
12542;PMS3003;6337;49.556;25.594;2023-10-13T15:15:34;19.47;9.60;
12542;PMS3003;6337;49.556;25.594;2023-10-13T15:18:01;16.30;9.53;
12542;PMS3003;6337;49.556;25.594;2023-10-13T15:20:29;12.47;8.53;
12542;PMS3003;6337;49.556;25.594;2023-10-13T15:22:58;26.63;9.60;
12542;PMS3003;6337;49.556;25.594;2023-10-13T15:25:28;19.40;8.93;
12542;PMS3003;6337;49.556;25.594;2023-10-13T15:28:05;12.10;7.37;
12542;PMS3003;6337;49.556;25.594;2023-10-13T15:30:36;19.47;6.60;
12542;PMS3003;6337;49.556;25.594;2023-10-13T15:36:22;19.60;5.70;
12542;PMS3003;6337;49.556;25.594;2023-10-13T15:38:51;8.97;6.47;
12542;PMS3003;6337;49.556;25.594;2023-10-13T15:44:40;13.47;8.60;
12542;PMS3003;6337;49.556;25.594;2023-10-13T15:47:11;13.30;8.37;
12542;PMS3003;6337;49.556;25.594;2023-10-13T15:49:50;13.40;8.13;
12542;PMS3003;6337;49.556;25.594;2023-10-13T15:52:18;15.83;8.87;
12542;PMS3003;6337;49.556;25.594;2023-10-13T15:54:46;12.47;9.03;
12542;PMS3003;6337;49.556;25.594;2023-10-13T15:57:13;17.47;8.70;
12542;PMS3003;6337;49.556;25.594;2023-10-13T15:59:47;21.87;9.43;
12542;PMS3003;6337;49.556;25.594;2023-10-13T16:02:15;16.83;8.50;
12542;PMS3003;6337;49.556;25.594;2023-10-13T16:04:45;13.87;7.97;
12542;PMS3003;6337;49.556;25.594;2023-10-13T16:07:13;21.60;9.93;
12542;PMS3003;6337;49.556;25.594;2023-10-13T16:09:40;24.37;8.50;
12542;PMS3003;6337;49.556;25.594;2023-10-13T16:12:10;19.30;8.23;
12542;PMS3003;6337;49.556;25.594;2023-10-13T16:14:47;18.67;7.90;
12542;PMS3003;6337;49.556;25.594;2023-10-13T16:17:29;20.03;8.50;
12542;PMS3003;6337;49.556;25.594;2023-10-13T16:19:57;15.13;9.73;
12542;PMS3003;6337;49.556;25.594;2023-10-13T16:22:26;15.57;8.13;
12542;PMS3003;6337;49.556;25.594;2023-10-13T16:24:57;16.90;8.30;
12542;PMS3003;6337;49.556;25.594;2023-10-13T16:27:26;21.10;8.80;
12542;PMS3003;6337;49.556;25.594;2023-10-13T17:03:28;40.37;23.70;
12542;PMS3003;6337;49.556;25.594;2023-10-13T17:09:33;30.10;16.67;
12542;PMS3003;6337;49.556;25.594;2023-10-13T17:15:25;41.73;21.00;
12542;PMS3003;6337;49.556;25.594;2023-10-13T17:21:21;39.63;18.63;
12542;PMS3003;6337;49.556;25.594;2023-10-13T17:41:13;44.13;17.97;
12542;PMS3003;6337;49.556;25.594;2023-10-13T18:00:35;47.17;29.27;
12542;PMS3003;6337;49.556;25.594;2023-10-13T18:03:02;64.80;35.23;
12542;PMS3003;6337;49.556;25.594;2023-10-13T18:05:33;35.13;21.80;
12542;PMS3003;6337;49.556;25.594;2023-10-13T18:08:18;27.23;16.40;
12542;PMS3003;6337;49.556;25.594;2023-10-13T18:14:17;23.07;14.00;
12542;PMS3003;6337;49.556;25.594;2023-10-13T18:16:50;25.70;16.20;
12542;PMS3003;6337;49.556;25.594;2023-10-13T18:19:20;23.20;13.87;
12542;PMS3003;6337;49.556;25.594;2023-10-13T18:21:52;26.80;13.30;
12542;PMS3003;6337;49.556;25.594;2023-10-13T18:24:50;25.50;16.73;
12542;PMS3003;6337;49.556;25.594;2023-10-13T18:27:18;24.50;15.67;
12542;PMS3003;6337;49.556;25.594;2023-10-13T18:29:46;31.13;19.80;
12542;PMS3003;6337;49.556;25.594;2023-10-13T18:35:45;43.87;23.40;
12542;PMS3003;6337;49.556;25.594;2023-10-13T18:38:18;45.93;30.03;
12542;PMS3003;6337;49.556;25.594;2023-10-13T18:40:56;46.30;29.13;
12542;PMS3003;6337;49.556;25.594;2023-10-13T18:43:24;55.90;30.07;
12542;PMS3003;6337;49.556;25.594;2023-10-13T18:46:00;47.50;28.30;
12542;PMS3003;6337;49.556;25.594;2023-10-13T18:48:28;40.10;26.30;
12542;PMS3003;6337;49.556;25.594;2023-10-13T18:50:56;39.07;27.20;
12542;PMS3003;6337;49.556;25.594;2023-10-13T18:53:26;42.73;24.00;
12542;PMS3003;6337;49.556;25.594;2023-10-13T18:55:56;40.87;22.83;
12542;PMS3003;6337;49.556;25.594;2023-10-13T18:58:24;36.30;23.60;
12542;PMS3003;6337;49.556;25.594;2023-10-13T19:00:54;38.73;22.47;
12542;PMS3003;6337;49.556;25.594;2023-10-13T19:03:22;38.53;20.60;
12542;PMS3003;6337;49.556;25.594;2023-10-13T19:05:55;35.43;21.80;
12542;PMS3003;6337;49.556;25.594;2023-10-13T19:08:24;41.93;22.60;
12542;PMS3003;6337;49.556;25.594;2023-10-13T19:10:58;34.03;20.50;
12542;PMS3003;6337;49.556;25.594;2023-10-13T19:13:51;38.10;22.80;
12542;PMS3003;6337;49.556;25.594;2023-10-13T19:16:21;36.53;20.90;
12542;PMS3003;6337;49.556;25.594;2023-10-13T19:18:51;35.50;19.83;
12542;PMS3003;6337;49.556;25.594;2023-10-13T19:21:41;36.83;20.20;
12542;PMS3003;6337;49.556;25.594;2023-10-13T19:24:11;42.40;21.80;
12542;PMS3003;6337;49.556;25.594;2023-10-13T19:26:43;39.67;24.83;
12542;PMS3003;6337;49.556;25.594;2023-10-13T19:32:36;53.77;29.40;
12542;PMS3003;6337;49.556;25.594;2023-10-13T19:35:06;56.50;34.00;
12542;PMS3003;6337;49.556;25.594;2023-10-13T19:37:46;75.87;35.63;
12542;PMS3003;6337;49.556;25.594;2023-10-13T19:40:27;70.07;45.77;
12542;PMS3003;6337;49.556;25.594;2023-10-13T19:42:58;66.70;39.33;
12542;PMS3003;6337;49.556;25.594;2023-10-13T19:45:25;59.17;35.83;
12542;PMS3003;6337;49.556;25.594;2023-10-13T19:47:52;54.93;35.67;
12542;PMS3003;6337;49.556;25.594;2023-10-13T19:50:21;59.03;33.83;
12542;PMS3003;6337;49.556;25.594;2023-10-13T19:52:50;50.97;34.27;
12542;PMS3003;6337;49.556;25.594;2023-10-13T19:55:20;56.53;35.03;
12542;PMS3003;6337;49.556;25.594;2023-10-13T19:57:57;71.20;40.70;
12542;PMS3003;6337;49.556;25.594;2023-10-13T20:00:27;55.53;33.10;
12542;PMS3003;6337;49.556;25.594;2023-10-13T20:03:00;58.47;33.20;
12542;PMS3003;6337;49.556;25.594;2023-10-13T20:05:28;43.00;30.40;
12542;PMS3003;6337;49.556;25.594;2023-10-13T20:07:58;46.07;27.90;
12542;PMS3003;6337;49.556;25.594;2023-10-13T20:10:30;44.37;27.30;
12542;PMS3003;6337;49.556;25.594;2023-10-13T20:13:07;47.30;28.97;
12542;PMS3003;6337;49.556;25.594;2023-10-13T20:15:43;51.33;29.43;
12542;PMS3003;6337;49.556;25.594;2023-10-13T20:18:10;56.57;32.07;
12542;PMS3003;6337;49.556;25.594;2023-10-13T20:20:43;47.60;30.30;
12542;PMS3003;6337;49.556;25.594;2023-10-13T20:23:11;50.20;30.53;
12542;PMS3003;6337;49.556;25.594;2023-10-13T20:31:47;44.53;28.20;
12542;PMS3003;6337;49.556;25.594;2023-10-13T20:34:17;50.50;30.00;
12542;PMS3003;6337;49.556;25.594;2023-10-13T20:37:00;57.60;30.93;
12542;PMS3003;6337;49.556;25.594;2023-10-13T20:39:30;54.27;30.03;
12542;PMS3003;6337;49.556;25.594;2023-10-13T20:41:58;46.60;26.83;
12542;PMS3003;6337;49.556;25.594;2023-10-13T20:44:31;44.80;26.67;
12542;PMS3003;6337;49.556;25.594;2023-10-13T20:47:15;43.30;25.90;
12542;PMS3003;6337;49.556;25.594;2023-10-13T20:49:43;53.53;29.87;
12542;PMS3003;6337;49.556;25.594;2023-10-13T20:52:11;42.37;27.30;
12542;PMS3003;6337;49.556;25.594;2023-10-13T20:54:40;45.57;24.53;
12542;PMS3003;6337;49.556;25.594;2023-10-13T20:57:07;36.83;24.20;
12542;PMS3003;6337;49.556;25.594;2023-10-13T20:59:38;36.60;24.07;
12542;PMS3003;6337;49.556;25.594;2023-10-13T21:02:06;36.93;24.80;
12542;PMS3003;6337;49.556;25.594;2023-10-13T21:04:34;44.73;26.97;
12542;PMS3003;6337;49.556;25.594;2023-10-13T21:07:01;48.80;27.20;
12542;PMS3003;6337;49.556;25.594;2023-10-13T21:09:29;42.77;28.57;
12542;PMS3003;6337;49.556;25.594;2023-10-13T21:11:57;45.37;27.70;
12542;PMS3003;6337;49.556;25.594;2023-10-13T21:14:31;45.83;27.53;
12542;PMS3003;6337;49.556;25.594;2023-10-13T21:17:00;44.27;29.20;
12542;PMS3003;6337;49.556;25.594;2023-10-13T21:19:29;55.17;29.60;
12542;PMS3003;6337;49.556;25.594;2023-10-13T21:21:57;53.93;29.90;
12542;PMS3003;6337;49.556;25.594;2023-10-13T21:24:24;54.03;32.07;
12542;PMS3003;6337;49.556;25.594;2023-10-13T21:26:53;62.57;35.90;
12542;PMS3003;6337;49.556;25.594;2023-10-13T21:29:21;63.43;35.47;
12542;PMS3003;6337;49.556;25.594;2023-10-13T21:31:51;57.13;36.43;
12542;PMS3003;6337;49.556;25.594;2023-10-13T21:34:23;60.77;31.23;
12542;PMS3003;6337;49.556;25.594;2023-10-13T21:36:51;61.60;32.20;
12542;PMS3003;6337;49.556;25.594;2023-10-13T21:39:18;55.03;37.00;
12542;PMS3003;6337;49.556;25.594;2023-10-13T21:41:46;61.40;37.07;
12542;PMS3003;6337;49.556;25.594;2023-10-13T21:44:14;56.13;34.93;
12542;PMS3003;6337;49.556;25.594;2023-10-13T21:46:41;51.73;32.07;
12542;PMS3003;6337;49.556;25.594;2023-10-13T21:49:09;52.77;33.77;
12542;PMS3003;6337;49.556;25.594;2023-10-13T21:51:38;63.47;33.70;
12542;PMS3003;6337;49.556;25.594;2023-10-13T21:54:07;55.77;31.33;
12542;PMS3003;6337;49.556;25.594;2023-10-13T21:56:36;42.43;27.33;
12542;PMS3003;6337;49.556;25.594;2023-10-13T21:59:04;45.57;24.00;
12542;PMS3003;6337;49.556;25.594;2023-10-13T22:01:36;30.90;21.87;
12542;PMS3003;6337;49.556;25.594;2023-10-13T22:04:10;33.30;21.20;
12542;PMS3003;6337;49.556;25.594;2023-10-13T22:06:47;32.30;20.27;
12542;PMS3003;6337;49.556;25.594;2023-10-13T22:09:15;31.73;20.27;
12542;PMS3003;6337;49.556;25.594;2023-10-13T22:11:44;32.13;20.70;
12542;PMS3003;6337;49.556;25.594;2023-10-13T22:17:11;30.90;20.40;
12542;PMS3003;6337;49.556;25.594;2023-10-13T22:19:40;30.73;19.70;
12542;PMS3003;6337;49.556;25.594;2023-10-13T22:22:09;30.50;19.97;
12542;PMS3003;6337;49.556;25.594;2023-10-13T22:24:37;31.00;19.93;
12542;PMS3003;6337;49.556;25.594;2023-10-13T22:27:08;29.43;19.50;
12542;PMS3003;6337;49.556;25.594;2023-10-13T22:29:40;35.77;20.73;
12542;PMS3003;6337;49.556;25.594;2023-10-13T22:32:08;25.73;18.80;
12542;PMS3003;6337;49.556;25.594;2023-10-13T22:34:36;26.63;17.10;
12542;PMS3003;6337;49.556;25.594;2023-10-13T22:37:03;32.70;18.10;
12542;PMS3003;6337;49.556;25.594;2023-10-13T22:39:32;28.30;17.57;
12542;PMS3003;6337;49.556;25.594;2023-10-13T22:42:00;28.70;19.17;
12542;PMS3003;6337;49.556;25.594;2023-10-13T22:44:28;30.73;16.50;
12542;PMS3003;6337;49.556;25.594;2023-10-13T22:46:58;29.27;17.63;
12542;PMS3003;6337;49.556;25.594;2023-10-13T22:49:26;31.80;18.53;
12542;PMS3003;6337;49.556;25.594;2023-10-13T22:51:57;34.53;20.50;
12542;PMS3003;6337;49.556;25.594;2023-10-13T22:54:27;35.33;21.07;
12542;PMS3003;6337;49.556;25.594;2023-10-13T22:56:56;26.80;19.10;
12542;PMS3003;6337;49.556;25.594;2023-10-13T22:59:23;27.90;17.73;
12542;PMS3003;6337;49.556;25.594;2023-10-13T23:01:52;38.00;21.37;
12542;PMS3003;6337;49.556;25.594;2023-10-13T23:04:25;30.93;18.73;
12542;PMS3003;6337;49.556;25.594;2023-10-13T23:06:59;22.87;17.63;
12542;PMS3003;6337;49.556;25.594;2023-10-13T23:09:35;29.93;18.30;
12542;PMS3003;6337;49.556;25.594;2023-10-13T23:12:15;32.90;20.27;
12542;PMS3003;6337;49.556;25.594;2023-10-13T23:14:45;37.90;20.30;
12542;PMS3003;6337;49.556;25.594;2023-10-13T23:17:15;36.13;21.90;
12542;PMS3003;6337;49.556;25.594;2023-10-13T23:19:47;32.70;19.17;
12542;PMS3003;6337;49.556;25.594;2023-10-13T23:22:14;33.10;22.13;
12542;PMS3003;6337;49.556;25.594;2023-10-13T23:24:42;36.60;21.60;
12542;PMS3003;6337;49.556;25.594;2023-10-13T23:27:10;35.30;21.40;
12542;PMS3003;6337;49.556;25.594;2023-10-13T23:29:39;40.13;25.40;
12542;PMS3003;6337;49.556;25.594;2023-10-13T23:32:06;38.40;24.90;
12542;PMS3003;6337;49.556;25.594;2023-10-13T23:34:33;39.57;22.30;
12542;PMS3003;6337;49.556;25.594;2023-10-13T23:37:01;50.43;28.80;
12542;PMS3003;6337;49.556;25.594;2023-10-13T23:39:35;54.07;29.97;
12542;PMS3003;6337;49.556;25.594;2023-10-13T23:42:03;57.97;33.60;
12542;PMS3003;6337;49.556;25.594;2023-10-13T23:44:32;63.50;36.77;
12542;PMS3003;6337;49.556;25.594;2023-10-13T23:47:03;81.67;44.90;
12542;PMS3003;6337;49.556;25.594;2023-10-13T23:49:35;78.33;47.73;
12542;PMS3003;6337;49.556;25.594;2023-10-13T23:52:02;93.97;53.13;
12542;PMS3003;6337;49.556;25.594;2023-10-13T23:54:32;101.50;56.07;